sensor_id;sensor_type;location;lat;lon;timestamp;P1;durP1;ratioP1;P2;durP2;ratioP2
75073;SDS011;63652;51.526;5.080;2022-09-29T00:01:28;3.33;;;2.28;;
75073;SDS011;63652;51.526;5.080;2022-09-29T00:03:54;5.30;;;2.97;;
75073;SDS011;63652;51.526;5.080;2022-09-29T00:06:20;5.05;;;3.13;;
75073;SDS011;63652;51.526;5.080;2022-09-29T00:08:45;5.75;;;3.58;;
75073;SDS011;63652;51.526;5.080;2022-09-29T00:11:12;8.02;;;4.82;;
75073;SDS011;63652;51.526;5.080;2022-09-29T00:13:39;7.00;;;4.18;;
75073;SDS011;63652;51.526;5.080;2022-09-29T00:16:05;7.68;;;4.65;;
75073;SDS011;63652;51.526;5.080;2022-09-29T00:18:31;8.60;;;5.30;;
75073;SDS011;63652;51.526;5.080;2022-09-29T00:21:30;8.40;;;5.03;;
75073;SDS011;63652;51.526;5.080;2022-09-29T00:23:49;9.27;;;5.70;;
75073;SDS011;63652;51.526;5.080;2022-09-29T00:28:41;6.60;;;3.97;;
75073;SDS011;63652;51.526;5.080;2022-09-29T00:31:10;6.70;;;4.32;;
75073;SDS011;63652;51.526;5.080;2022-09-29T00:33:36;9.63;;;5.22;;
75073;SDS011;63652;51.526;5.080;2022-09-29T00:36:03;11.10;;;6.60;;
75073;SDS011;63652;51.526;5.080;2022-09-29T00:38:30;8.07;;;4.97;;
75073;SDS011;63652;51.526;5.080;2022-09-29T00:40:56;9.35;;;4.93;;
75073;SDS011;63652;51.526;5.080;2022-09-29T00:43:24;9.50;;;5.25;;
75073;SDS011;63652;51.526;5.080;2022-09-29T00:46:10;7.63;;;4.35;;
75073;SDS011;63652;51.526;5.080;2022-09-29T00:48:36;7.18;;;4.47;;
75073;SDS011;63652;51.526;5.080;2022-09-29T00:51:02;9.52;;;3.88;;
75073;SDS011;63652;51.526;5.080;2022-09-29T00:53:27;4.85;;;3.22;;
75073;SDS011;63652;51.526;5.080;2022-09-29T00:55:58;6.28;;;3.83;;
75073;SDS011;63652;51.526;5.080;2022-09-29T00:58:29;4.68;;;3.13;;
75073;SDS011;63652;51.526;5.080;2022-09-29T01:01:03;6.68;;;3.58;;
75073;SDS011;63652;51.526;5.080;2022-09-29T01:03:30;7.07;;;3.15;;
75073;SDS011;63652;51.526;5.080;2022-09-29T01:06:02;7.28;;;4.45;;
75073;SDS011;63652;51.526;5.080;2022-09-29T01:08:45;10.60;;;4.22;;
75073;SDS011;63652;51.526;5.080;2022-09-29T01:11:16;6.28;;;3.40;;
75073;SDS011;63652;51.526;5.080;2022-09-29T01:13:42;6.80;;;3.50;;
75073;SDS011;63652;51.526;5.080;2022-09-29T01:16:08;6.30;;;3.92;;
75073;SDS011;63652;51.526;5.080;2022-09-29T01:18:34;7.13;;;3.75;;
75073;SDS011;63652;51.526;5.080;2022-09-29T01:28:51;8.13;;;4.30;;
75073;SDS011;63652;51.526;5.080;2022-09-29T01:31:29;8.05;;;4.95;;
75073;SDS011;63652;51.526;5.080;2022-09-29T01:39:28;6.88;;;4.50;;
75073;SDS011;63652;51.526;5.080;2022-09-29T01:42:02;8.48;;;4.78;;
75073;SDS011;63652;51.526;5.080;2022-09-29T01:44:35;8.52;;;5.22;;
75073;SDS011;63652;51.526;5.080;2022-09-29T01:50:03;8.80;;;6.03;;
75073;SDS011;63652;51.526;5.080;2022-09-29T01:52:45;10.00;;;5.47;;
75073;SDS011;63652;51.526;5.080;2022-09-29T01:55:17;9.52;;;5.30;;
75073;SDS011;63652;51.526;5.080;2022-09-29T01:58:05;11.13;;;6.40;;
75073;SDS011;63652;51.526;5.080;2022-09-29T02:00:50;10.90;;;6.25;;
75073;SDS011;63652;51.526;5.080;2022-09-29T02:05:58;13.48;;;6.72;;
75073;SDS011;63652;51.526;5.080;2022-09-29T02:08:42;11.00;;;7.25;;
75073;SDS011;63652;51.526;5.080;2022-09-29T02:11:14;11.23;;;7.03;;
75073;SDS011;63652;51.526;5.080;2022-09-29T02:13:51;11.75;;;7.18;;
75073;SDS011;63652;51.526;5.080;2022-09-29T02:16:24;10.43;;;6.18;;
75073;SDS011;63652;51.526;5.080;2022-09-29T02:18:54;11.85;;;7.80;;
75073;SDS011;63652;51.526;5.080;2022-09-29T02:21:21;11.77;;;6.80;;
75073;SDS011;63652;51.526;5.080;2022-09-29T02:23:47;11.65;;;6.30;;
75073;SDS011;63652;51.526;5.080;2022-09-29T02:26:13;9.70;;;5.88;;
75073;SDS011;63652;51.526;5.080;2022-09-29T02:28:39;9.18;;;5.72;;
75073;SDS011;63652;51.526;5.080;2022-09-29T02:31:06;9.23;;;5.60;;
75073;SDS011;63652;51.526;5.080;2022-09-29T02:33:31;11.77;;;6.47;;
75073;SDS011;63652;51.526;5.080;2022-09-29T02:36:00;8.88;;;5.82;;
75073;SDS011;63652;51.526;5.080;2022-09-29T02:38:41;10.40;;;5.40;;
75073;SDS011;63652;51.526;5.080;2022-09-29T02:46:27;8.68;;;5.55;;
75073;SDS011;63652;51.526;5.080;2022-09-29T02:49:20;8.20;;;5.18;;
75073;SDS011;63652;51.526;5.080;2022-09-29T02:51:54;8.25;;;5.30;;
75073;SDS011;63652;51.526;5.080;2022-09-29T02:59:44;9.18;;;5.47;;
75073;SDS011;63652;51.526;5.080;2022-09-29T03:02:23;8.70;;;5.38;;
75073;SDS011;63652;51.526;5.080;2022-09-29T03:04:49;10.70;;;6.10;;
75073;SDS011;63652;51.526;5.080;2022-09-29T03:07:15;9.07;;;6.20;;
75073;SDS011;63652;51.526;5.080;2022-09-29T03:09:40;8.63;;;5.05;;
75073;SDS011;63652;51.526;5.080;2022-09-29T03:12:05;8.60;;;5.28;;
75073;SDS011;63652;51.526;5.080;2022-09-29T03:14:31;7.78;;;5.60;;
75073;SDS011;63652;51.526;5.080;2022-09-29T03:16:56;7.72;;;4.80;;
75073;SDS011;63652;51.526;5.080;2022-09-29T03:19:22;6.40;;;4.68;;
75073;SDS011;63652;51.526;5.080;2022-09-29T03:21:47;8.43;;;5.10;;
75073;SDS011;63652;51.526;5.080;2022-09-29T03:24:12;8.65;;;5.40;;
75073;SDS011;63652;51.526;5.080;2022-09-29T03:26:38;7.75;;;4.97;;
75073;SDS011;63652;51.526;5.080;2022-09-29T03:29:03;8.38;;;4.85;;
75073;SDS011;63652;51.526;5.080;2022-09-29T03:31:28;8.50;;;5.35;;
75073;SDS011;63652;51.526;5.080;2022-09-29T03:33:54;10.32;;;5.20;;
75073;SDS011;63652;51.526;5.080;2022-09-29T03:36:19;11.38;;;5.90;;
75073;SDS011;63652;51.526;5.080;2022-09-29T03:38:45;9.13;;;6.10;;
75073;SDS011;63652;51.526;5.080;2022-09-29T03:41:11;10.18;;;5.55;;
75073;SDS011;63652;51.526;5.080;2022-09-29T03:43:36;10.52;;;6.40;;
75073;SDS011;63652;51.526;5.080;2022-09-29T03:46:01;9.27;;;5.57;;
75073;SDS011;63652;51.526;5.080;2022-09-29T03:48:28;7.15;;;4.70;;
75073;SDS011;63652;51.526;5.080;2022-09-29T03:50:55;6.93;;;4.47;;
75073;SDS011;63652;51.526;5.080;2022-09-29T03:53:21;12.27;;;6.30;;
75073;SDS011;63652;51.526;5.080;2022-09-29T03:55:46;9.35;;;5.47;;
75073;SDS011;63652;51.526;5.080;2022-09-29T03:58:12;11.95;;;6.25;;
75073;SDS011;63652;51.526;5.080;2022-09-29T04:00:38;8.32;;;5.65;;
75073;SDS011;63652;51.526;5.080;2022-09-29T04:03:03;8.43;;;5.68;;
75073;SDS011;63652;51.526;5.080;2022-09-29T04:05:29;10.25;;;6.40;;
75073;SDS011;63652;51.526;5.080;2022-09-29T04:07:54;8.90;;;5.55;;
75073;SDS011;63652;51.526;5.080;2022-09-29T04:10:20;11.73;;;6.43;;
75073;SDS011;63652;51.526;5.080;2022-09-29T04:12:45;10.90;;;6.10;;
75073;SDS011;63652;51.526;5.080;2022-09-29T04:15:10;9.63;;;5.85;;
75073;SDS011;63652;51.526;5.080;2022-09-29T04:17:36;8.18;;;5.55;;
75073;SDS011;63652;51.526;5.080;2022-09-29T04:20:01;11.50;;;5.88;;
75073;SDS011;63652;51.526;5.080;2022-09-29T04:22:27;9.55;;;5.90;;
75073;SDS011;63652;51.526;5.080;2022-09-29T04:24:52;8.48;;;5.55;;
75073;SDS011;63652;51.526;5.080;2022-09-29T04:27:17;7.57;;;5.05;;
75073;SDS011;63652;51.526;5.080;2022-09-29T04:29:43;9.40;;;5.05;;
75073;SDS011;63652;51.526;5.080;2022-09-29T04:32:08;9.68;;;5.93;;
75073;SDS011;63652;51.526;5.080;2022-09-29T04:34:34;9.75;;;5.63;;
75073;SDS011;63652;51.526;5.080;2022-09-29T04:36:59;8.55;;;5.10;;
75073;SDS011;63652;51.526;5.080;2022-09-29T04:39:25;8.70;;;5.45;;
75073;SDS011;63652;51.526;5.080;2022-09-29T04:41:51;11.48;;;6.47;;
75073;SDS011;63652;51.526;5.080;2022-09-29T04:44:16;8.85;;;5.82;;
75073;SDS011;63652;51.526;5.080;2022-09-29T04:46:44;9.55;;;5.65;;
75073;SDS011;63652;51.526;5.080;2022-09-29T04:49:09;7.90;;;5.43;;
75073;SDS011;63652;51.526;5.080;2022-09-29T04:51:35;9.35;;;5.07;;
75073;SDS011;63652;51.526;5.080;2022-09-29T04:54:00;8.55;;;5.15;;
75073;SDS011;63652;51.526;5.080;2022-09-29T04:56:25;8.82;;;5.38;;
75073;SDS011;63652;51.526;5.080;2022-09-29T04:58:55;11.70;;;5.63;;
75073;SDS011;63652;51.526;5.080;2022-09-29T05:01:21;9.45;;;5.50;;
75073;SDS011;63652;51.526;5.080;2022-09-29T05:03:46;9.05;;;5.40;;
75073;SDS011;63652;51.526;5.080;2022-09-29T05:06:15;8.73;;;5.93;;
75073;SDS011;63652;51.526;5.080;2022-09-29T05:08:41;8.30;;;5.40;;
75073;SDS011;63652;51.526;5.080;2022-09-29T05:11:07;7.03;;;4.30;;
75073;SDS011;63652;51.526;5.080;2022-09-29T05:13:33;9.27;;;4.97;;
75073;SDS011;63652;51.526;5.080;2022-09-29T05:15:59;8.10;;;5.13;;
75073;SDS011;63652;51.526;5.080;2022-09-29T05:18:25;7.18;;;5.07;;
75073;SDS011;63652;51.526;5.080;2022-09-29T05:20:50;6.75;;;4.22;;
75073;SDS011;63652;51.526;5.080;2022-09-29T05:23:16;7.57;;;4.10;;
75073;SDS011;63652;51.526;5.080;2022-09-29T05:25:41;7.75;;;4.03;;
75073;SDS011;63652;51.526;5.080;2022-09-29T05:28:08;4.80;;;3.20;;
75073;SDS011;63652;51.526;5.080;2022-09-29T05:30:34;5.40;;;3.50;;
75073;SDS011;63652;51.526;5.080;2022-09-29T05:33:00;6.00;;;3.22;;
75073;SDS011;63652;51.526;5.080;2022-09-29T05:35:25;4.35;;;2.90;;
75073;SDS011;63652;51.526;5.080;2022-09-29T05:37:51;4.38;;;2.95;;
75073;SDS011;63652;51.526;5.080;2022-09-29T05:40:16;4.38;;;2.63;;
75073;SDS011;63652;51.526;5.080;2022-09-29T05:42:43;5.35;;;3.40;;
75073;SDS011;63652;51.526;5.080;2022-09-29T05:45:09;8.75;;;3.90;;
75073;SDS011;63652;51.526;5.080;2022-09-29T05:47:36;6.22;;;4.07;;
75073;SDS011;63652;51.526;5.080;2022-09-29T05:50:05;5.90;;;4.18;;
75073;SDS011;63652;51.526;5.080;2022-09-29T05:52:31;7.68;;;4.85;;
75073;SDS011;63652;51.526;5.080;2022-09-29T05:54:56;11.50;;;5.95;;
75073;SDS011;63652;51.526;5.080;2022-09-29T05:57:21;11.15;;;5.45;;
75073;SDS011;63652;51.526;5.080;2022-09-29T05:59:47;9.20;;;5.40;;
75073;SDS011;63652;51.526;5.080;2022-09-29T06:02:12;7.38;;;4.70;;
75073;SDS011;63652;51.526;5.080;2022-09-29T06:04:38;7.60;;;4.25;;
75073;SDS011;63652;51.526;5.080;2022-09-29T06:07:03;6.88;;;4.72;;
75073;SDS011;63652;51.526;5.080;2022-09-29T06:09:28;8.23;;;5.00;;
75073;SDS011;63652;51.526;5.080;2022-09-29T06:11:54;9.88;;;6.05;;
75073;SDS011;63652;51.526;5.080;2022-09-29T06:14:19;8.77;;;5.20;;
75073;SDS011;63652;51.526;5.080;2022-09-29T06:16:45;13.60;;;6.20;;
75073;SDS011;63652;51.526;5.080;2022-09-29T06:19:10;9.40;;;5.75;;
75073;SDS011;63652;51.526;5.080;2022-09-29T06:21:35;8.32;;;5.57;;
75073;SDS011;63652;51.526;5.080;2022-09-29T06:24:02;9.20;;;5.43;;
75073;SDS011;63652;51.526;5.080;2022-09-29T06:26:27;8.40;;;5.32;;
75073;SDS011;63652;51.526;5.080;2022-09-29T06:28:53;8.75;;;5.28;;
75073;SDS011;63652;51.526;5.080;2022-09-29T06:31:20;11.77;;;5.80;;
75073;SDS011;63652;51.526;5.080;2022-09-29T06:33:47;7.15;;;4.82;;
75073;SDS011;63652;51.526;5.080;2022-09-29T06:36:19;9.60;;;5.40;;
75073;SDS011;63652;51.526;5.080;2022-09-29T06:39:05;9.48;;;5.35;;
75073;SDS011;63652;51.526;5.080;2022-09-29T06:41:31;10.52;;;6.05;;
75073;SDS011;63652;51.526;5.080;2022-09-29T06:43:58;9.38;;;5.85;;
75073;SDS011;63652;51.526;5.080;2022-09-29T06:46:23;10.05;;;6.57;;
75073;SDS011;63652;51.526;5.080;2022-09-29T06:48:51;11.80;;;5.85;;
75073;SDS011;63652;51.526;5.080;2022-09-29T06:51:16;13.55;;;6.65;;
75073;SDS011;63652;51.526;5.080;2022-09-29T06:53:42;9.93;;;6.88;;
75073;SDS011;63652;51.526;5.080;2022-09-29T06:56:08;9.30;;;5.78;;
75073;SDS011;63652;51.526;5.080;2022-09-29T06:58:33;12.02;;;6.82;;
75073;SDS011;63652;51.526;5.080;2022-09-29T07:00:59;13.77;;;7.68;;
75073;SDS011;63652;51.526;5.080;2022-09-29T07:03:26;12.10;;;7.30;;
75073;SDS011;63652;51.526;5.080;2022-09-29T07:05:52;10.90;;;6.45;;
75073;SDS011;63652;51.526;5.080;2022-09-29T07:08:20;11.57;;;6.85;;
75073;SDS011;63652;51.526;5.080;2022-09-29T07:10:45;14.15;;;7.65;;
75073;SDS011;63652;51.526;5.080;2022-09-29T07:13:12;13.35;;;7.32;;
75073;SDS011;63652;51.526;5.080;2022-09-29T07:15:37;13.70;;;7.20;;
75073;SDS011;63652;51.526;5.080;2022-09-29T07:18:03;13.45;;;8.05;;
75073;SDS011;63652;51.526;5.080;2022-09-29T07:20:29;13.68;;;8.43;;
75073;SDS011;63652;51.526;5.080;2022-09-29T07:22:58;19.95;;;10.85;;
75073;SDS011;63652;51.526;5.080;2022-09-29T07:25:24;23.10;;;9.68;;
75073;SDS011;63652;51.526;5.080;2022-09-29T07:27:49;21.77;;;10.50;;
75073;SDS011;63652;51.526;5.080;2022-09-29T07:30:15;18.85;;;9.85;;
75073;SDS011;63652;51.526;5.080;2022-09-29T07:32:41;24.02;;;12.13;;
75073;SDS011;63652;51.526;5.080;2022-09-29T07:35:07;25.77;;;12.43;;
75073;SDS011;63652;51.526;5.080;2022-09-29T07:37:33;23.45;;;11.90;;
75073;SDS011;63652;51.526;5.080;2022-09-29T07:39:58;25.50;;;13.50;;
75073;SDS011;63652;51.526;5.080;2022-09-29T07:42:24;18.67;;;11.45;;
75073;SDS011;63652;51.526;5.080;2022-09-29T07:44:49;18.65;;;11.07;;
75073;SDS011;63652;51.526;5.080;2022-09-29T07:47:15;21.17;;;10.45;;
75073;SDS011;63652;51.526;5.080;2022-09-29T07:49:40;20.55;;;10.43;;
75073;SDS011;63652;51.526;5.080;2022-09-29T07:52:06;18.13;;;9.73;;
75073;SDS011;63652;51.526;5.080;2022-09-29T07:54:31;18.40;;;9.93;;
75073;SDS011;63652;51.526;5.080;2022-09-29T07:56:57;18.98;;;10.70;;
75073;SDS011;63652;51.526;5.080;2022-09-29T07:59:25;17.65;;;10.35;;
75073;SDS011;63652;51.526;5.080;2022-09-29T08:01:51;14.30;;;8.68;;
75073;SDS011;63652;51.526;5.080;2022-09-29T08:04:17;16.70;;;8.95;;
75073;SDS011;63652;51.526;5.080;2022-09-29T08:06:42;20.17;;;11.38;;
75073;SDS011;63652;51.526;5.080;2022-09-29T08:09:08;19.25;;;11.27;;
75073;SDS011;63652;51.526;5.080;2022-09-29T08:11:36;20.98;;;10.95;;
75073;SDS011;63652;51.526;5.080;2022-09-29T08:14:02;18.83;;;10.80;;
75073;SDS011;63652;51.526;5.080;2022-09-29T08:16:29;18.50;;;9.98;;
75073;SDS011;63652;51.526;5.080;2022-09-29T08:18:54;17.13;;;9.23;;
75073;SDS011;63652;51.526;5.080;2022-09-29T08:21:19;18.90;;;10.77;;
75073;SDS011;63652;51.526;5.080;2022-09-29T08:23:45;16.10;;;9.90;;
75073;SDS011;63652;51.526;5.080;2022-09-29T08:26:11;13.30;;;9.05;;
75073;SDS011;63652;51.526;5.080;2022-09-29T08:28:39;16.27;;;9.57;;
75073;SDS011;63652;51.526;5.080;2022-09-29T08:31:05;17.17;;;8.15;;
75073;SDS011;63652;51.526;5.080;2022-09-29T08:33:32;14.73;;;9.57;;
75073;SDS011;63652;51.526;5.080;2022-09-29T08:35:58;17.92;;;8.90;;
75073;SDS011;63652;51.526;5.080;2022-09-29T08:38:24;12.75;;;9.00;;
75073;SDS011;63652;51.526;5.080;2022-09-29T08:40:50;13.57;;;9.02;;
75073;SDS011;63652;51.526;5.080;2022-09-29T08:43:18;15.73;;;9.20;;
75073;SDS011;63652;51.526;5.080;2022-09-29T08:45:59;13.88;;;7.80;;
75073;SDS011;63652;51.526;5.080;2022-09-29T08:48:28;12.82;;;8.20;;
75073;SDS011;63652;51.526;5.080;2022-09-29T08:51:03;14.98;;;8.32;;
75073;SDS011;63652;51.526;5.080;2022-09-29T08:53:31;13.75;;;8.68;;
75073;SDS011;63652;51.526;5.080;2022-09-29T08:56:08;13.93;;;8.48;;
75073;SDS011;63652;51.526;5.080;2022-09-29T08:58:38;15.90;;;8.70;;
75073;SDS011;63652;51.526;5.080;2022-09-29T09:06:48;16.80;;;8.68;;
75073;SDS011;63652;51.526;5.080;2022-09-29T09:17:18;14.68;;;8.15;;
75073;SDS011;63652;51.526;5.080;2022-09-29T09:25:31;13.15;;;8.88;;
75073;SDS011;63652;51.526;5.080;2022-09-29T09:33:56;14.45;;;7.82;;
75073;SDS011;63652;51.526;5.080;2022-09-29T09:36:44;15.32;;;8.15;;
75073;SDS011;63652;51.526;5.080;2022-09-29T09:39:25;13.50;;;7.50;;
75073;SDS011;63652;51.526;5.080;2022-09-29T09:41:58;11.75;;;7.90;;
75073;SDS011;63652;51.526;5.080;2022-09-29T09:44:26;14.82;;;8.15;;
75073;SDS011;63652;51.526;5.080;2022-09-29T09:47:02;14.48;;;8.27;;
75073;SDS011;63652;51.526;5.080;2022-09-29T09:49:36;14.57;;;7.78;;
75073;SDS011;63652;51.526;5.080;2022-09-29T09:52:21;16.88;;;7.60;;
75073;SDS011;63652;51.526;5.080;2022-09-29T09:54:51;15.80;;;7.55;;
75073;SDS011;63652;51.526;5.080;2022-09-29T10:02:42;10.13;;;6.03;;
75073;SDS011;63652;51.526;5.080;2022-09-29T10:05:11;13.45;;;6.30;;
75073;SDS011;63652;51.526;5.080;2022-09-29T10:07:38;10.05;;;6.13;;
75073;SDS011;63652;51.526;5.080;2022-09-29T10:10:04;15.80;;;7.78;;
75073;SDS011;63652;51.526;5.080;2022-09-29T10:12:38;14.13;;;6.70;;
75073;SDS011;63652;51.526;5.080;2022-09-29T10:15:04;9.55;;;6.15;;
75073;SDS011;63652;51.526;5.080;2022-09-29T10:17:41;10.88;;;6.00;;
75073;SDS011;63652;51.526;5.080;2022-09-29T10:20:09;11.27;;;6.95;;
75073;SDS011;63652;51.526;5.080;2022-09-29T10:22:46;12.85;;;7.72;;
75073;SDS011;63652;51.526;5.080;2022-09-29T10:25:16;10.57;;;6.25;;
75073;SDS011;63652;51.526;5.080;2022-09-29T10:27:46;8.43;;;5.60;;
75073;SDS011;63652;51.526;5.080;2022-09-29T10:30:18;9.48;;;5.65;;
75073;SDS011;63652;51.526;5.080;2022-09-29T10:32:45;9.15;;;5.60;;
75073;SDS011;63652;51.526;5.080;2022-09-29T10:35:15;9.73;;;5.72;;
75073;SDS011;63652;51.526;5.080;2022-09-29T10:37:47;11.32;;;6.15;;
75073;SDS011;63652;51.526;5.080;2022-09-29T10:40:37;10.43;;;5.63;;
75073;SDS011;63652;51.526;5.080;2022-09-29T10:43:25;8.88;;;5.20;;
75073;SDS011;63652;51.526;5.080;2022-09-29T10:45:51;7.63;;;4.78;;
75073;SDS011;63652;51.526;5.080;2022-09-29T10:48:22;7.55;;;4.30;;
75073;SDS011;63652;51.526;5.080;2022-09-29T10:50:53;8.30;;;4.10;;
75073;SDS011;63652;51.526;5.080;2022-09-29T10:56:07;5.25;;;2.85;;
75073;SDS011;63652;51.526;5.080;2022-09-29T11:01:16;4.13;;;1.90;;
75073;SDS011;63652;51.526;5.080;2022-09-29T11:03:49;2.42;;;1.48;;
75073;SDS011;63652;51.526;5.080;2022-09-29T11:06:16;4.55;;;1.90;;
75073;SDS011;63652;51.526;5.080;2022-09-29T11:08:54;6.10;;;3.42;;
75073;SDS011;63652;51.526;5.080;2022-09-29T11:13:51;6.65;;;3.60;;
75073;SDS011;63652;51.526;5.080;2022-09-29T11:16:28;5.15;;;3.53;;
75073;SDS011;63652;51.526;5.080;2022-09-29T11:22:09;6.00;;;4.00;;
75073;SDS011;63652;51.526;5.080;2022-09-29T11:38:39;5.32;;;3.80;;
75073;SDS011;63652;51.526;5.080;2022-09-29T11:41:30;6.50;;;3.30;;
75073;SDS011;63652;51.526;5.080;2022-09-29T11:51:53;6.20;;;3.40;;
75073;SDS011;63652;51.526;5.080;2022-09-29T11:54:22;4.68;;;3.58;;
75073;SDS011;63652;51.526;5.080;2022-09-29T11:57:09;6.75;;;3.97;;
75073;SDS011;63652;51.526;5.080;2022-09-29T11:59:47;5.90;;;3.78;;
75073;SDS011;63652;51.526;5.080;2022-09-29T12:10:50;4.25;;;3.13;;
75073;SDS011;63652;51.526;5.080;2022-09-29T12:13:27;4.95;;;3.30;;
75073;SDS011;63652;51.526;5.080;2022-09-29T12:16:41;4.88;;;2.97;;
75073;SDS011;63652;51.526;5.080;2022-09-29T12:21:54;5.60;;;3.50;;
75073;SDS011;63652;51.526;5.080;2022-09-29T12:29:44;4.63;;;3.25;;
75073;SDS011;63652;51.526;5.080;2022-09-29T12:32:24;5.53;;;4.03;;
75073;SDS011;63652;51.526;5.080;2022-09-29T12:35:01;4.15;;;3.30;;
75073;SDS011;63652;51.526;5.080;2022-09-29T12:40:20;4.25;;;2.33;;
75073;SDS011;63652;51.526;5.080;2022-09-29T12:45:58;4.30;;;2.92;;
75073;SDS011;63652;51.526;5.080;2022-09-29T12:51:00;5.40;;;2.63;;
75073;SDS011;63652;51.526;5.080;2022-09-29T12:56:13;4.97;;;3.00;;
75073;SDS011;63652;51.526;5.080;2022-09-29T12:58:48;4.78;;;3.42;;
75073;SDS011;63652;51.526;5.080;2022-09-29T13:01:19;4.97;;;3.53;;
75073;SDS011;63652;51.526;5.080;2022-09-29T13:04:04;7.70;;;3.40;;
75073;SDS011;63652;51.526;5.080;2022-09-29T13:09:20;4.28;;;3.30;;
75073;SDS011;63652;51.526;5.080;2022-09-29T13:29:21;4.60;;;3.50;;
75073;SDS011;63652;51.526;5.080;2022-09-29T13:31:48;4.68;;;3.85;;
75073;SDS011;63652;51.526;5.080;2022-09-29T13:37:03;4.32;;;3.60;;
75073;SDS011;63652;51.526;5.080;2022-09-29T13:39:31;5.13;;;3.50;;
75073;SDS011;63652;51.526;5.080;2022-09-29T13:41:56;5.90;;;3.80;;
75073;SDS011;63652;51.526;5.080;2022-09-29T13:48:00;4.43;;;3.72;;
75073;SDS011;63652;51.526;5.080;2022-09-29T13:50:48;6.38;;;3.13;;
75073;SDS011;63652;51.526;5.080;2022-09-29T14:00:52;4.43;;;3.30;;
75073;SDS011;63652;51.526;5.080;2022-09-29T14:03:25;5.93;;;3.13;;
75073;SDS011;63652;51.526;5.080;2022-09-29T14:06:02;4.80;;;2.92;;
75073;SDS011;63652;51.526;5.080;2022-09-29T14:08:30;5.05;;;3.80;;
75073;SDS011;63652;51.526;5.080;2022-09-29T14:11:06;4.50;;;3.03;;
75073;SDS011;63652;51.526;5.080;2022-09-29T14:13:56;5.93;;;3.38;;
75073;SDS011;63652;51.526;5.080;2022-09-29T14:24:54;4.25;;;3.10;;
75073;SDS011;63652;51.526;5.080;2022-09-29T14:32:54;3.50;;;2.58;;
75073;SDS011;63652;51.526;5.080;2022-09-29T14:38:35;4.28;;;2.92;;
75073;SDS011;63652;51.526;5.080;2022-09-29T14:40:59;6.93;;;3.05;;
75073;SDS011;63652;51.526;5.080;2022-09-29T14:43:34;6.75;;;3.53;;
75073;SDS011;63652;51.526;5.080;2022-09-29T14:52:27;4.82;;;3.05;;
75073;SDS011;63652;51.526;5.080;2022-09-29T15:00:25;5.10;;;2.78;;
75073;SDS011;63652;51.526;5.080;2022-09-29T15:02:57;5.60;;;3.38;;
75073;SDS011;63652;51.526;5.080;2022-09-29T15:07:53;4.63;;;3.30;;
75073;SDS011;63652;51.526;5.080;2022-09-29T15:10:27;4.45;;;2.60;;
75073;SDS011;63652;51.526;5.080;2022-09-29T15:15:45;4.60;;;3.33;;
75073;SDS011;63652;51.526;5.080;2022-09-29T15:20:47;6.65;;;4.38;;
75073;SDS011;63652;51.526;5.080;2022-09-29T15:23:22;7.82;;;4.80;;
75073;SDS011;63652;51.526;5.080;2022-09-29T15:26:13;3.72;;;3.33;;
75073;SDS011;63652;51.526;5.080;2022-09-29T15:28:39;4.55;;;3.22;;
75073;SDS011;63652;51.526;5.080;2022-09-29T15:31:07;4.63;;;3.08;;
75073;SDS011;63652;51.526;5.080;2022-09-29T15:33:35;4.47;;;3.67;;
75073;SDS011;63652;51.526;5.080;2022-09-29T15:36:03;6.72;;;3.28;;
75073;SDS011;63652;51.526;5.080;2022-09-29T15:41:13;4.50;;;2.90;;
75073;SDS011;63652;51.526;5.080;2022-09-29T15:43:51;4.55;;;2.95;;
75073;SDS011;63652;51.526;5.080;2022-09-29T15:46:25;3.90;;;2.78;;
75073;SDS011;63652;51.526;5.080;2022-09-29T15:51:27;6.05;;;3.60;;
75073;SDS011;63652;51.526;5.080;2022-09-29T15:53:53;4.30;;;3.72;;
75073;SDS011;63652;51.526;5.080;2022-09-29T15:56:19;5.32;;;4.13;;
75073;SDS011;63652;51.526;5.080;2022-09-29T15:58:45;4.63;;;3.30;;
75073;SDS011;63652;51.526;5.080;2022-09-29T16:01:12;6.03;;;4.07;;
75073;SDS011;63652;51.526;5.080;2022-09-29T16:03:50;4.90;;;4.07;;
75073;SDS011;63652;51.526;5.080;2022-09-29T16:08:53;4.95;;;4.43;;
75073;SDS011;63652;51.526;5.080;2022-09-29T16:11:24;9.00;;;4.35;;
75073;SDS011;63652;51.526;5.080;2022-09-29T16:14:01;6.65;;;4.95;;
75073;SDS011;63652;51.526;5.080;2022-09-29T16:16:33;7.55;;;5.53;;
75073;SDS011;63652;51.526;5.080;2022-09-29T16:19:08;5.72;;;4.60;;
75073;SDS011;63652;51.526;5.080;2022-09-29T16:21:37;9.57;;;5.18;;
75073;SDS011;63652;51.526;5.080;2022-09-29T16:24:09;6.03;;;4.45;;
75073;SDS011;63652;51.526;5.080;2022-09-29T16:26:38;6.22;;;4.80;;
75073;SDS011;63652;51.526;5.080;2022-09-29T16:31:34;6.45;;;4.63;;
75073;SDS011;63652;51.526;5.080;2022-09-29T16:34:03;7.40;;;5.07;;
75073;SDS011;63652;51.526;5.080;2022-09-29T16:39:18;7.40;;;4.75;;
75073;SDS011;63652;51.526;5.080;2022-09-29T16:41:47;7.00;;;4.53;;
75073;SDS011;63652;51.526;5.080;2022-09-29T16:44:17;6.38;;;4.85;;
75073;SDS011;63652;51.526;5.080;2022-09-29T16:51:54;7.40;;;5.05;;
75073;SDS011;63652;51.526;5.080;2022-09-29T16:54:22;7.22;;;5.22;;
75073;SDS011;63652;51.526;5.080;2022-09-29T16:57:08;8.80;;;5.93;;
75073;SDS011;63652;51.526;5.080;2022-09-29T16:59:43;8.65;;;6.57;;
75073;SDS011;63652;51.526;5.080;2022-09-29T17:02:09;8.63;;;6.18;;
75073;SDS011;63652;51.526;5.080;2022-09-29T17:04:35;8.75;;;6.90;;
75073;SDS011;63652;51.526;5.080;2022-09-29T17:07:00;8.70;;;6.53;;
75073;SDS011;63652;51.526;5.080;2022-09-29T17:09:28;7.72;;;5.95;;
75073;SDS011;63652;51.526;5.080;2022-09-29T17:11:53;10.02;;;6.57;;
75073;SDS011;63652;51.526;5.080;2022-09-29T17:14:19;14.63;;;8.98;;
75073;SDS011;63652;51.526;5.080;2022-09-29T17:16:46;10.77;;;8.50;;
75073;SDS011;63652;51.526;5.080;2022-09-29T17:19:14;11.43;;;9.32;;
75073;SDS011;63652;51.526;5.080;2022-09-29T17:21:40;9.55;;;7.47;;
75073;SDS011;63652;51.526;5.080;2022-09-29T17:24:06;8.75;;;6.95;;
75073;SDS011;63652;51.526;5.080;2022-09-29T17:26:33;9.70;;;7.72;;
75073;SDS011;63652;51.526;5.080;2022-09-29T17:29:19;7.35;;;6.35;;
75073;SDS011;63652;51.526;5.080;2022-09-29T17:31:44;10.93;;;7.65;;
75073;SDS011;63652;51.526;5.080;2022-09-29T17:34:10;9.60;;;7.30;;
75073;SDS011;63652;51.526;5.080;2022-09-29T17:36:35;9.02;;;6.75;;
75073;SDS011;63652;51.526;5.080;2022-09-29T17:39:01;9.23;;;6.82;;
75073;SDS011;63652;51.526;5.080;2022-09-29T17:41:26;8.30;;;6.28;;
75073;SDS011;63652;51.526;5.080;2022-09-29T17:43:52;9.73;;;6.55;;
75073;SDS011;63652;51.526;5.080;2022-09-29T17:46:17;8.13;;;5.65;;
75073;SDS011;63652;51.526;5.080;2022-09-29T17:48:43;7.18;;;5.55;;
75073;SDS011;63652;51.526;5.080;2022-09-29T17:51:09;12.20;;;8.27;;
75073;SDS011;63652;51.526;5.080;2022-09-29T17:53:36;15.02;;;10.73;;
75073;SDS011;63652;51.526;5.080;2022-09-29T17:56:02;19.13;;;12.93;;
75073;SDS011;63652;51.526;5.080;2022-09-29T17:58:28;14.13;;;10.48;;
75073;SDS011;63652;51.526;5.080;2022-09-29T18:00:54;15.00;;;10.40;;
75073;SDS011;63652;51.526;5.080;2022-09-29T18:03:23;11.68;;;9.40;;
75073;SDS011;63652;51.526;5.080;2022-09-29T18:05:50;12.57;;;8.25;;
75073;SDS011;63652;51.526;5.080;2022-09-29T18:08:20;10.80;;;8.07;;
75073;SDS011;63652;51.526;5.080;2022-09-29T18:10:53;9.73;;;7.95;;
75073;SDS011;63652;51.526;5.080;2022-09-29T18:13:23;10.25;;;7.97;;
75073;SDS011;63652;51.526;5.080;2022-09-29T18:15:51;10.75;;;8.40;;
75073;SDS011;63652;51.526;5.080;2022-09-29T18:18:17;10.57;;;8.50;;
75073;SDS011;63652;51.526;5.080;2022-09-29T18:20:44;13.45;;;8.32;;
75073;SDS011;63652;51.526;5.080;2022-09-29T18:23:11;12.07;;;8.52;;
75073;SDS011;63652;51.526;5.080;2022-09-29T18:25:39;11.05;;;8.43;;
75073;SDS011;63652;51.526;5.080;2022-09-29T18:28:05;12.05;;;9.68;;